createdAt,value
2023-03-26T00:01:50.844Z,7.77
2023-03-26T00:05:33.695Z,7.73
2023-03-26T00:09:17.700Z,7.69
2023-03-26T00:13:01.675Z,7.64
2023-03-26T00:16:44.864Z,7.69
2023-03-26T00:20:27.677Z,7.64
2023-03-26T00:24:14.998Z,7.66
2023-03-26T00:27:58.454Z,7.68
2023-03-26T00:31:46.183Z,7.60
2023-03-26T00:35:29.844Z,7.56
2023-03-26T00:39:12.512Z,7.55
2023-03-26T00:42:55.150Z,7.51
2023-03-26T00:46:37.839Z,7.47
2023-03-26T00:50:21.953Z,7.45
2023-03-26T00:54:04.759Z,7.37
2023-03-26T00:57:47.508Z,7.31
2023-03-26T01:01:30.394Z,7.34
2023-03-26T01:05:48.670Z,7.33
2023-03-26T01:09:36.912Z,7.22
2023-03-26T01:13:21.478Z,7.17
2023-03-26T01:17:07.138Z,7.18
2023-03-26T01:20:50.934Z,7.16
2023-03-26T01:24:34.982Z,7.12
2023-03-26T01:28:21.747Z,7.09
2023-03-26T01:32:10.516Z,7.06
2023-03-26T01:35:56.201Z,7.07
2023-03-26T01:39:49.551Z,6.98
2023-03-26T01:43:35.286Z,6.92
2023-03-26T01:47:18.821Z,7.01
2023-03-26T01:51:01.503Z,6.94
2023-03-26T01:54:46.709Z,6.86
2023-03-26T01:58:35.560Z,6.86
2023-03-26T02:02:23.400Z,6.80
2023-03-26T02:06:09.794Z,6.75
2023-03-26T02:10:00.559Z,6.74
2023-03-26T02:13:45.303Z,6.79
2023-03-26T02:17:32.923Z,6.84
2023-03-26T02:21:20.445Z,6.87
2023-03-26T02:25:04.809Z,6.88
2023-03-26T02:28:47.425Z,6.90
2023-03-26T02:32:30.083Z,6.95
2023-03-26T02:36:14.074Z,6.96
2023-03-26T02:39:58.164Z,6.97
2023-03-26T02:43:42.213Z,6.95
2023-03-26T02:47:24.978Z,7.00
2023-03-26T02:51:10.042Z,6.98
2023-03-26T02:54:53.451Z,7.01
2023-03-26T02:58:36.239Z,7.03
2023-03-26T03:02:22.506Z,7.00
2023-03-26T03:06:05.906Z,7.00
2023-03-26T03:09:50.660Z,7.08
2023-03-26T03:13:33.413Z,7.11
2023-03-26T03:17:18.100Z,7.09
2023-03-26T03:21:02.972Z,7.09
2023-03-26T03:24:45.729Z,7.13
2023-03-26T03:28:28.366Z,7.08
2023-03-26T03:32:11.041Z,7.05
2023-03-26T03:35:53.928Z,7.06
2023-03-26T03:39:38.202Z,7.06
2023-03-26T03:43:20.968Z,7.11
2023-03-26T03:47:03.859Z,7.15
2023-03-26T03:50:46.538Z,7.17
2023-03-26T03:54:31.394Z,7.21
2023-03-26T03:58:22.264Z,7.20
2023-03-26T04:02:05.982Z,7.25
2023-03-26T04:05:55.327Z,7.28
2023-03-26T04:09:38.177Z,7.27
2023-03-26T04:13:22.391Z,7.26
2023-03-26T04:17:07.690Z,7.31
2023-03-26T04:20:50.745Z,7.34
2023-03-26T04:24:38.343Z,7.34
2023-03-26T04:28:28.732Z,7.34
2023-03-26T04:32:14.300Z,7.33
2023-03-26T04:36:02.668Z,7.34
2023-03-26T04:39:45.546Z,7.36
2023-03-26T04:43:30.265Z,7.39
2023-03-26T04:47:14.118Z,7.39
2023-03-26T04:50:57.240Z,7.39
2023-03-26T04:54:42.122Z,7.36
2023-03-26T04:58:30.190Z,7.34
2023-03-26T05:02:15.555Z,7.33
2023-03-26T05:06:01.126Z,7.34
2023-03-26T05:09:43.835Z,7.38
2023-03-26T05:13:26.556Z,7.35
2023-03-26T05:17:10.918Z,7.30
2023-03-26T05:20:56.007Z,7.29
2023-03-26T05:24:40.694Z,7.33
2023-03-26T05:28:24.678Z,7.42
2023-03-26T05:32:08.063Z,7.44
2023-03-26T05:36:02.142Z,7.48
2023-03-26T05:39:45.797Z,7.50
2023-03-26T05:43:28.603Z,7.50
2023-03-26T05:47:11.257Z,7.55
2023-03-26T05:50:55.496Z,7.60
2023-03-26T05:54:39.653Z,7.60
2023-03-26T05:58:22.776Z,7.58
2023-03-26T06:02:05.563Z,7.61
2023-03-26T06:05:48.184Z,7.64
2023-03-26T06:09:31.076Z,7.65
2023-03-26T06:13:16.162Z,7.70
2023-03-26T06:17:01.312Z,7.68
2023-03-26T06:20:43.991Z,7.69
2023-03-26T06:24:26.938Z,7.73
2023-03-26T06:28:09.685Z,7.76
2023-03-26T06:31:53.802Z,7.80
2023-03-26T06:35:36.473Z,7.84
2023-03-26T06:39:19.440Z,7.90
2023-03-26T06:43:07.786Z,7.99
2023-03-26T06:46:54.543Z,8.05
2023-03-26T06:50:37.209Z,8.14
2023-03-26T06:54:19.936Z,8.19
2023-03-26T06:58:02.781Z,8.24
2023-03-26T07:01:46.778Z,8.24
2023-03-26T07:05:31.026Z,8.23
2023-03-26T07:09:13.830Z,8.23
2023-03-26T07:12:56.438Z,8.22
2023-03-26T07:16:39.132Z,8.21
2023-03-26T07:20:21.820Z,8.17
2023-03-26T07:24:06.682Z,8.16
2023-03-26T07:27:57.081Z,8.15
2023-03-26T07:31:43.989Z,8.10
2023-03-26T07:35:30.801Z,8.08
2023-03-26T07:39:28.102Z,8.09
2023-03-26T07:43:20.978Z,8.10
2023-03-26T07:47:09.672Z,8.14
2023-03-26T07:50:53.161Z,8.20
2023-03-26T07:54:38.088Z,8.23
2023-03-26T07:58:53.261Z,8.26
2023-03-26T08:02:50.253Z,8.35
2023-03-26T08:06:36.171Z,8.40
2023-03-26T08:10:22.772Z,8.41
2023-03-26T08:14:17.909Z,8.48
2023-03-26T08:18:06.216Z,8.54
2023-03-26T08:21:56.403Z,8.59
2023-03-26T08:25:51.708Z,8.65
2023-03-26T08:29:41.212Z,8.70
2023-03-26T08:33:24.001Z,8.74
2023-03-26T08:37:06.646Z,8.80
2023-03-26T08:41:16.990Z,8.84
2023-03-26T08:45:28.073Z,8.89
2023-03-26T08:49:52.915Z,8.90
2023-03-26T08:54:15.675Z,8.84
2023-03-26T08:58:30.690Z,8.73
2023-03-26T09:02:33.233Z,8.71
2023-03-26T09:06:50.199Z,8.65
2023-03-26T09:11:00.299Z,8.61
2023-03-26T09:15:42.595Z,8.52
2023-03-26T09:19:55.872Z,9.57
2023-03-26T09:24:25.397Z,10.28
2023-03-26T09:28:39.760Z,9.99
2023-03-26T09:32:42.892Z,9.85
2023-03-26T09:36:34.489Z,9.73
2023-03-26T09:40:18.731Z,9.58
2023-03-26T09:44:34.500Z,9.42
2023-03-26T09:48:44.609Z,9.26
2023-03-26T09:52:50.303Z,9.16
2023-03-26T09:56:40.040Z,9.04
2023-03-26T10:00:29.002Z,8.98
2023-03-26T10:04:38.006Z,8.95
2023-03-26T10:08:52.434Z,9.02
2023-03-26T10:12:38.323Z,8.99
2023-03-26T10:16:27.359Z,9.05
2023-03-26T10:20:51.528Z,9.04
2023-03-26T10:24:46.877Z,8.86
2023-03-26T10:28:44.709Z,8.77
2023-03-26T10:32:32.337Z,8.78
2023-03-26T10:36:25.686Z,8.64
2023-03-26T10:40:22.373Z,8.51
2023-03-26T10:44:16.874Z,8.46
2023-03-26T10:48:21.385Z,8.41
2023-03-26T10:52:05.954Z,8.42
2023-03-26T10:55:54.429Z,8.46
2023-03-26T10:59:37.091Z,8.52
2023-03-26T11:03:44.904Z,8.55
2023-03-26T11:07:30.260Z,8.54
2023-03-26T11:11:21.400Z,8.57
2023-03-26T11:15:14.895Z,8.65
2023-03-26T11:19:00.864Z,8.73
2023-03-26T11:22:53.559Z,8.79
2023-03-26T11:26:43.528Z,8.83
2023-03-26T11:30:32.057Z,8.87
2023-03-26T11:34:17.520Z,8.88
2023-03-26T11:38:06.212Z,8.90
2023-03-26T11:41:50.450Z,8.97
2023-03-26T11:45:36.148Z,8.86
2023-03-26T11:49:20.879Z,8.66
2023-03-26T11:53:11.685Z,8.39
2023-03-26T11:57:06.533Z,8.27
2023-03-26T12:00:50.224Z,8.07
2023-03-26T12:04:36.669Z,8.03
2023-03-26T12:08:21.604Z,8.15
2023-03-26T12:12:06.519Z,8.34
2023-03-26T12:15:49.271Z,8.53
2023-03-26T12:19:38.046Z,8.70
2023-03-26T12:23:37.623Z,8.91
2023-03-26T12:27:28.348Z,9.03
2023-03-26T12:31:18.345Z,9.25
2023-03-26T12:35:07.145Z,9.36
2023-03-26T12:39:43.163Z,9.48
2023-03-26T12:44:47.212Z,9.54
2023-03-26T12:47:57.671Z,9.63
2023-03-26T12:51:20.217Z,9.60
2023-03-26T12:55:12.166Z,9.69
2023-03-26T12:59:14.103Z,9.65
2023-03-26T13:03:27.770Z,9.58
2023-03-26T13:07:17.700Z,9.56
2023-03-26T13:11:05.178Z,10.07
2023-03-26T13:14:57.508Z,9.12
2023-03-26T13:18:46.648Z,9.12
2023-03-26T13:22:36.061Z,9.16
2023-03-26T13:26:40.968Z,9.12
2023-03-26T13:30:31.405Z,9.09
2023-03-26T13:34:19.726Z,9.05
2023-03-26T13:38:06.977Z,8.96
2023-03-26T13:42:18.266Z,8.98
2023-03-26T13:46:08.654Z,8.98
2023-03-26T13:49:52.856Z,8.96
2023-03-26T13:53:38.792Z,9.01
2023-03-26T13:57:25.706Z,9.05
2023-03-26T14:01:12.335Z,9.17
2023-03-26T14:04:57.957Z,9.28
2023-03-26T14:08:43.586Z,9.30
2023-03-26T14:12:33.391Z,9.23
2023-03-26T14:16:19.235Z,9.23
2023-03-26T14:20:29.582Z,9.27
2023-03-26T14:24:28.642Z,9.14
2023-03-26T14:28:21.105Z,9.03
2023-03-26T14:32:24.516Z,8.97
2023-03-26T14:36:12.314Z,8.77
2023-03-26T14:40:26.953Z,8.74
2023-03-26T14:44:47.625Z,8.69
2023-03-26T14:48:49.967Z,8.74
2023-03-26T14:52:41.657Z,8.75
2023-03-26T14:56:59.022Z,8.74
2023-03-26T15:01:06.895Z,8.76
2023-03-26T15:05:21.242Z,8.81
2023-03-26T15:09:46.421Z,8.87
2023-03-26T15:13:59.553Z,8.89
2023-03-26T15:18:13.516Z,8.93
2023-03-26T15:22:33.704Z,9.00
2023-03-26T15:26:53.916Z,9.05
2023-03-26T15:31:18.632Z,9.13
2023-03-26T15:35:33.497Z,9.17
2023-03-26T15:39:59.367Z,9.10
2023-03-26T15:44:23.111Z,9.08
2023-03-26T15:48:30.039Z,9.07
2023-03-26T15:52:22.167Z,9.06
2023-03-26T15:56:17.689Z,8.97
2023-03-26T16:00:12.416Z,8.83
2023-03-26T16:04:04.895Z,8.60
2023-03-26T16:07:53.741Z,8.47
2023-03-26T16:11:53.880Z,8.37
2023-03-26T16:15:37.318Z,8.31
2023-03-26T16:19:49.468Z,8.17
2023-03-26T16:23:47.167Z,8.14
2023-03-26T16:27:32.150Z,8.15
2023-03-26T16:31:38.382Z,8.16
2023-03-26T16:35:53.988Z,8.11
2023-03-26T16:39:41.200Z,8.05
2023-03-26T16:44:02.161Z,7.97
2023-03-26T16:47:51.525Z,7.92
2023-03-26T16:51:55.383Z,7.92
2023-03-26T16:55:42.716Z,7.87
2023-03-26T17:00:05.665Z,7.84
2023-03-26T17:03:55.156Z,7.86
2023-03-26T17:07:44.690Z,7.87
2023-03-26T17:11:36.129Z,7.78
2023-03-26T17:15:26.539Z,8.19
2023-03-26T17:19:17.759Z,8.06
2023-03-26T17:23:19.514Z,8.18
2023-03-26T17:27:05.732Z,8.02
2023-03-26T17:30:58.497Z,7.98
2023-03-26T17:34:56.583Z,7.94
2023-03-26T17:39:06.701Z,7.81
2023-03-26T17:43:02.342Z,7.78
2023-03-26T17:46:48.306Z,7.75
2023-03-26T17:50:33.276Z,7.69
2023-03-26T17:54:22.823Z,7.60
2023-03-26T17:58:06.934Z,7.52
2023-03-26T18:01:50.794Z,7.31
2023-03-26T18:05:34.246Z,7.02
2023-03-26T18:09:28.491Z,6.78
2023-03-26T18:13:30.651Z,6.66
2023-03-26T18:17:13.363Z,6.49
2023-03-26T18:20:56.313Z,6.42
2023-03-26T18:24:42.158Z,6.31
2023-03-26T18:28:31.887Z,6.21
2023-03-26T18:32:22.086Z,6.08
2023-03-26T18:36:05.172Z,5.97
2023-03-26T18:40:00.763Z,5.87
2023-03-26T18:43:44.192Z,5.78
2023-03-26T18:47:28.550Z,5.67
2023-03-26T18:51:11.485Z,5.70
2023-03-26T18:54:54.773Z,5.62
2023-03-26T18:58:41.767Z,5.66
2023-03-26T19:02:26.208Z,5.53
2023-03-26T19:06:10.926Z,5.45
2023-03-26T19:09:56.314Z,5.42
2023-03-26T19:13:41.457Z,5.37
2023-03-26T19:17:25.542Z,5.31
2023-03-26T19:21:09.637Z,5.24
2023-03-26T19:24:56.933Z,5.28
2023-03-26T19:28:43.191Z,5.32
2023-03-26T19:32:32.264Z,5.26
2023-03-26T19:36:18.793Z,5.24
2023-03-26T19:40:07.187Z,5.27
2023-03-26T19:43:52.042Z,5.30
2023-03-26T19:47:48.406Z,5.29
2023-03-26T19:51:34.807Z,5.31
2023-03-26T19:55:20.783Z,5.31
2023-03-26T19:59:05.150Z,5.31
2023-03-26T20:02:48.688Z,5.31
2023-03-26T20:06:42.345Z,5.37
2023-03-26T20:10:26.612Z,5.37
2023-03-26T20:14:14.908Z,5.42
2023-03-26T20:17:57.542Z,5.44
2023-03-26T20:21:41.502Z,5.43
2023-03-26T20:25:29.969Z,5.38
2023-03-26T20:29:15.842Z,5.39
2023-03-26T20:33:12.566Z,5.49
2023-03-26T20:36:57.118Z,5.42
2023-03-26T20:40:44.692Z,5.46
2023-03-26T20:44:28.723Z,5.39
2023-03-26T20:48:11.909Z,5.37
2023-03-26T20:51:55.564Z,5.40
2023-03-26T20:55:38.186Z,5.34
2023-03-26T20:59:22.799Z,5.33
2023-03-26T21:03:06.964Z,5.37
2023-03-26T21:06:50.125Z,5.36
2023-03-26T21:10:35.910Z,5.40
2023-03-26T21:14:21.846Z,5.34
2023-03-26T21:18:05.266Z,5.41
2023-03-26T21:21:59.240Z,5.33
2023-03-26T21:25:45.692Z,5.32
2023-03-26T21:29:28.898Z,5.34
2023-03-26T21:33:11.514Z,5.30
2023-03-26T21:36:56.270Z,5.31
2023-03-26T21:40:44.470Z,4.86
2023-03-26T21:44:30.344Z,5.17
2023-03-26T21:48:14.076Z,5.23
2023-03-26T21:51:58.810Z,5.22
2023-03-26T21:55:51.475Z,5.21
2023-03-26T21:59:43.206Z,5.22
2023-03-26T22:03:32.764Z,5.21
2023-03-26T22:07:22.194Z,5.21
2023-03-26T22:11:04.908Z,5.19
2023-03-26T22:14:47.562Z,5.17
2023-03-26T22:18:31.653Z,5.18
2023-03-26T22:22:14.846Z,5.07
2023-03-26T22:25:58.785Z,5.02
2023-03-26T22:29:42.302Z,5.00
2023-03-26T22:33:25.016Z,5.05
2023-03-26T22:37:07.647Z,5.11
2023-03-26T22:40:55.895Z,5.08
2023-03-26T22:44:40.095Z,5.05
2023-03-26T22:48:23.440Z,5.06
2023-03-26T22:52:07.071Z,5.05
2023-03-26T22:55:49.764Z,5.07
2023-03-26T22:59:32.388Z,5.08
2023-03-26T23:03:16.390Z,5.08
2023-03-26T23:06:59.092Z,5.04
2023-03-26T23:10:42.530Z,5.02
2023-03-26T23:14:25.462Z,4.98
2023-03-26T23:18:08.188Z,4.93
2023-03-26T23:21:52.796Z,5.01
2023-03-26T23:25:35.439Z,5.00
2023-03-26T23:29:18.303Z,4.96
2023-03-26T23:33:01.624Z,4.98
2023-03-26T23:36:44.736Z,4.93
2023-03-26T23:40:28.792Z,4.97
2023-03-26T23:44:14.608Z,4.91
2023-03-26T23:47:57.382Z,4.90
2023-03-26T23:51:40.184Z,4.87
2023-03-26T23:55:22.839Z,4.83
2023-03-26T23:59:07.247Z,4.86
